Time;durP1;ratioP1;P1;durP2;ratioP2;P2;SDS_P1;SDS_P2;PMS_P1;PMS_P2;Temp;Humidity;BMP_temperature;BMP_pressure;BME280_temperature;BME280_humidity;BME280_pressure;Samples;Min_cycle;Max_cycle;Signal;HPM_P1;HPM_P2
2023/06/01 00:00:49;;;;;;;5.03;2.75;;;;;;;;;;5078899;28;20056;-52
2023/06/01 00:03:16;;;;;;;4.25;3.20;;;;;;;;;;5084306;28;20166;-52
2023/06/01 00:05:43;;;;;;;5.97;3.35;;;;;;;;;;5075345;28;20053;-53
2023/06/01 00:08:09;;;;;;;7.35;3.25;;;;;;;;;;5075458;28;20536;-55
2023/06/01 00:10:35;;;;;;;5.25;3.30;;;;;;;;;;5080661;28;20052;-55
2023/06/01 00:13:02;;;;;;;5.95;3.30;;;;;;;;;;5076295;28;20063;-53
2023/06/01 00:15:28;;;;;;;8.60;2.92;;;;;;;;;;5084394;28;20069;-53
2023/06/01 00:17:55;;;;;;;6.30;3.03;;;;;;;;;;5083529;28;20099;-56
2023/06/01 00:20:24;;;;;;;6.72;3.05;;;;;;;;;;5073687;28;20052;-55
2023/06/01 00:22:51;;;;;;;4.28;3.08;;;;;;;;;;5074156;28;20131;-56
2023/06/01 00:25:17;;;;;;;4.93;2.97;;;;;;;;;;5084591;28;20057;-54
2023/06/01 00:27:43;;;;;;;5.38;3.83;;;;;;;;;;5081913;28;20055;-55
2023/06/01 00:30:10;;;;;;;4.32;3.28;;;;;;;;;;5081352;28;20045;-53
2023/06/01 00:32:36;;;;;;;5.70;3.17;;;;;;;;;;5070045;28;20135;-55
2023/06/01 00:35:03;;;;;;;5.78;2.78;;;;;;;;;;5073987;28;20095;-53
2023/06/01 00:37:29;;;;;;;5.90;3.72;;;;;;;;;;5073341;28;20059;-55
2023/06/01 00:39:56;;;;;;;6.13;3.22;;;;;;;;;;5074920;28;20640;-55
2023/06/01 00:42:22;;;;;;;6.95;3.53;;;;;;;;;;5075252;28;20143;-55
2023/06/01 00:44:49;;;;;;;6.32;3.42;;;;;;;;;;5083668;28;20080;-56
2023/06/01 00:47:16;;;;;;;5.03;2.60;;;;;;;;;;5084976;28;20525;-54
2023/06/01 00:49:42;;;;;;;6.22;3.45;;;;;;;;;;5084697;28;20504;-54
2023/06/01 00:52:09;;;;;;;3.25;2.78;;;;;;;;;;5081246;28;20110;-55
2023/06/01 00:54:35;;;;;;;5.70;3.17;;;;;;;;;;5076332;28;20053;-55
2023/06/01 00:57:02;;;;;;;6.80;3.33;;;;;;;;;;5095428;28;20175;-55
2023/06/01 00:59:28;;;;;;;6.57;3.80;;;;;;;;;;5083772;28;20041;-54
2023/06/01 01:01:55;;;;;;;5.32;2.75;;;;;;;;;;5071411;28;20140;-55
2023/06/01 01:04:25;;;;;;;6.65;3.00;;;;;;;;;;5074221;28;20135;-52
2023/06/01 01:07:18;;;;;;;3.92;2.75;;;;;;;;;;5084543;28;20619;-52
2023/06/01 01:09:48;;;;;;;4.03;2.67;;;;;;;;;;5056749;28;20057;-57
2023/06/01 01:12:30;;;;;;;7.35;3.30;;;;;;;;;;5075499;28;20135;-56
2023/06/01 01:15:08;;;;;;;5.07;2.58;;;;;;;;;;5080610;28;20080;-52
2023/06/01 01:17:38;;;;;;;3.83;2.40;;;;;;;;;;5069853;28;20056;-54
2023/06/01 01:20:12;;;;;;;5.43;2.42;;;;;;;;;;5084095;28;20528;-55
2023/06/01 01:22:38;;;;;;;5.35;3.25;;;;;;;;;;5083575;28;20048;-55
2023/06/01 01:25:21;;;;;;;5.53;2.85;;;;;;;;;;5079695;28;20130;-57
2023/06/01 01:28:08;;;;;;;6.63;2.75;;;;;;;;;;5082306;28;20048;-55
2023/06/01 01:30:37;;;;;;;4.68;2.53;;;;;;;;;;5077861;28;20143;-57
2023/06/01 01:33:03;;;;;;;6.60;3.33;;;;;;;;;;5066457;28;20063;-53
2023/06/01 01:35:30;;;;;;;5.38;3.42;;;;;;;;;;5080914;28;20128;-55
2023/06/01 01:37:56;;;;;;;5.65;2.92;;;;;;;;;;5081569;28;20602;-54
2023/06/01 01:40:23;;;;;;;5.85;3.10;;;;;;;;;;5077120;28;20144;-55
2023/06/01 01:42:50;;;;;;;3.45;2.90;;;;;;;;;;5071085;28;20131;-54
2023/06/01 01:45:17;;;;;;;3.50;2.97;;;;;;;;;;5083002;28;20613;-56
2023/06/01 01:47:46;;;;;;;4.32;2.80;;;;;;;;;;5080629;28;20053;-54
2023/06/01 01:50:13;;;;;;;5.32;3.10;;;;;;;;;;5081544;28;20056;-50
2023/06/01 01:52:41;;;;;;;7.20;3.35;;;;;;;;;;5080211;28;20052;-54
2023/06/01 01:55:08;;;;;;;3.70;2.70;;;;;;;;;;5080158;28;20052;-52
2023/06/01 01:57:35;;;;;;;8.55;3.70;;;;;;;;;;5069969;28;20139;-52
2023/06/01 02:00:02;;;;;;;3.72;2.75;;;;;;;;;;5080587;28;20048;-52
2023/06/01 02:02:30;;;;;;;4.00;3.38;;;;;;;;;;5072584;28;20546;-55
2023/06/01 02:04:56;;;;;;;6.97;3.03;;;;;;;;;;5073968;28;20060;-52
2023/06/01 02:07:23;;;;;;;5.07;3.75;;;;;;;;;;5082148;28;20056;-55
2023/06/01 02:09:49;;;;;;;6.60;3.88;;;;;;;;;;5068594;28;20143;-52
2023/06/01 02:12:16;;;;;;;9.07;3.67;;;;;;;;;;5071553;28;20089;-54
2023/06/01 02:14:42;;;;;;;4.07;3.00;;;;;;;;;;5069789;28;20053;-54
2023/06/01 02:17:09;;;;;;;4.95;3.03;;;;;;;;;;5072021;28;20057;-52
2023/06/01 02:19:35;;;;;;;5.30;3.30;;;;;;;;;;5083656;28;20561;-52
2023/06/01 02:22:01;;;;;;;6.28;3.45;;;;;;;;;;5071771;28;20049;-55
2023/06/01 02:24:28;;;;;;;5.93;3.80;;;;;;;;;;5080715;28;20151;-55
2023/06/01 02:26:55;;;;;;;6.82;3.15;;;;;;;;;;5078201;28;20086;-54
2023/06/01 02:29:22;;;;;;;8.30;3.78;;;;;;;;;;5085147;28;20059;-55
2023/06/01 02:31:50;;;;;;;5.63;3.17;;;;;;;;;;5079080;28;20183;-55
2023/06/01 02:34:17;;;;;;;7.72;3.78;;;;;;;;;;5075029;28;20049;-58
2023/06/01 02:36:43;;;;;;;7.22;3.78;;;;;;;;;;5085421;28;20503;-54
2023/06/01 02:39:10;;;;;;;5.28;3.80;;;;;;;;;;5084229;28;20056;-55
2023/06/01 02:41:36;;;;;;;5.75;3.67;;;;;;;;;;5076782;28;20049;-55
2023/06/01 02:44:02;;;;;;;6.05;3.78;;;;;;;;;;5068695;28;20065;-55
2023/06/01 02:46:29;;;;;;;10.40;3.83;;;;;;;;;;5083073;28;20517;-56
2023/06/01 02:48:55;;;;;;;5.05;3.53;;;;;;;;;;5066193;28;20143;-53
2023/06/01 02:51:22;;;;;;;4.25;3.42;;;;;;;;;;5069962;28;20051;-55
2023/06/01 02:53:48;;;;;;;6.07;3.42;;;;;;;;;;5073894;28;20112;-53
2023/06/01 02:56:15;;;;;;;6.13;3.38;;;;;;;;;;5082024;28;20582;-55
2023/06/01 02:58:42;;;;;;;5.32;3.55;;;;;;;;;;5078893;28;20135;-53
2023/06/01 03:01:11;;;;;;;7.97;3.67;;;;;;;;;;5068695;28;20053;-55
2023/06/01 03:03:38;;;;;;;8.98;4.35;;;;;;;;;;5074088;28;20872;-55
2023/06/01 03:06:06;;;;;;;7.32;3.72;;;;;;;;;;5071436;28;20144;-55
2023/06/01 03:08:34;;;;;;;7.10;4.07;;;;;;;;;;5072926;28;20051;-56
2023/06/01 03:11:00;;;;;;;5.03;3.97;;;;;;;;;;5071414;28;20515;-54
2023/06/01 03:13:27;;;;;;;5.38;3.50;;;;;;;;;;5070225;28;20063;-54
2023/06/01 03:15:53;;;;;;;5.25;3.20;;;;;;;;;;5070484;28;20100;-54
2023/06/01 03:18:19;;;;;;;4.65;3.53;;;;;;;;;;5070057;28;20063;-54
2023/06/01 03:20:47;;;;;;;6.88;4.00;;;;;;;;;;5072302;28;20053;-56
2023/06/01 03:23:14;;;;;;;14.40;3.85;;;;;;;;;;5071693;28;20666;-56
2023/06/01 03:25:40;;;;;;;4.55;3.67;;;;;;;;;;5075306;28;20052;-55
2023/06/01 03:28:06;;;;;;;7.38;3.83;;;;;;;;;;5081533;28;20063;-52
2023/06/01 03:30:33;;;;;;;6.35;3.42;;;;;;;;;;5074766;28;20595;-56
2023/06/01 03:32:59;;;;;;;6.75;4.68;;;;;;;;;;5069944;28;20057;-53
2023/06/01 03:35:26;;;;;;;12.07;4.50;;;;;;;;;;5071737;28;20061;-54
2023/06/01 03:37:52;;;;;;;6.95;3.63;;;;;;;;;;5072926;28;20151;-54
2023/06/01 03:40:18;;;;;;;10.52;4.18;;;;;;;;;;5071618;28;20058;-56
2023/06/01 03:42:46;;;;;;;5.65;3.55;;;;;;;;;;5071417;28;20063;-54
2023/06/01 03:45:13;;;;;;;11.18;3.95;;;;;;;;;;5068260;28;20053;-55
2023/06/01 03:47:39;;;;;;;7.40;4.65;;;;;;;;;;5071104;28;20136;-53
2023/06/01 03:50:07;;;;;;;5.28;4.00;;;;;;;;;;5071371;28;20053;-52
2023/06/01 03:52:33;;;;;;;6.38;3.60;;;;;;;;;;5070169;28;21277;-51
2023/06/01 03:55:12;;;;;;;7.32;3.92;;;;;;;;;;5070630;28;20060;-52
2023/06/01 03:57:39;;;;;;;5.63;3.65;;;;;;;;;;5078968;28;20053;-52
2023/06/01 04:00:18;;;;;;;8.20;4.07;;;;;;;;;;5075148;28;20605;-55
2023/06/01 04:02:49;;;;;;;7.47;4.00;;;;;;;;;;5082592;28;20136;-55
2023/06/01 04:05:17;;;;;;;4.38;3.30;;;;;;;;;;5073912;28;20083;-51
2023/06/01 04:07:47;;;;;;;5.45;3.50;;;;;;;;;;5083444;28;20056;-53
2023/06/01 04:10:14;;;;;;;6.70;3.88;;;;;;;;;;5080538;28;20056;-55
2023/06/01 04:12:41;;;;;;;4.07;3.15;;;;;;;;;;5072161;28;20057;-56
2023/06/01 04:15:09;;;;;;;7.72;3.00;;;;;;;;;;5068761;28;20128;-55
2023/06/01 04:17:36;;;;;;;4.80;3.08;;;;;;;;;;5077738;28;20095;-55
2023/06/01 04:20:06;;;;;;;8.15;3.90;;;;;;;;;;5079662;28;20687;-55
2023/06/01 04:22:35;;;;;;;9.40;3.60;;;;;;;;;;5079856;28;20577;-56
2023/06/01 04:25:04;;;;;;;6.93;3.10;;;;;;;;;;5083309;28;20076;-56
2023/06/01 04:27:30;;;;;;;5.35;3.05;;;;;;;;;;5082679;28;20045;-56
2023/06/01 04:29:58;;;;;;;6.32;3.88;;;;;;;;;;5084916;28;20138;-53
2023/06/01 04:32:27;;;;;;;6.70;3.58;;;;;;;;;;5083697;28;20629;-54
2023/06/01 04:34:54;;;;;;;3.78;2.85;;;;;;;;;;5084046;28;20130;-53
2023/06/01 04:37:21;;;;;;;6.13;3.60;;;;;;;;;;5084533;28;20061;-55
2023/06/01 04:39:51;;;;;;;8.95;4.07;;;;;;;;;;5084904;28;20087;-52
2023/06/01 04:42:18;;;;;;;6.28;3.22;;;;;;;;;;5069905;28;20219;-55
2023/06/01 04:44:49;;;;;;;6.72;3.28;;;;;;;;;;5074864;28;20056;-53
2023/06/01 04:47:16;;;;;;;8.38;4.38;;;;;;;;;;5084932;28;20059;-51
2023/06/01 04:49:43;;;;;;;6.85;3.75;;;;;;;;;;5082527;28;20072;-56
2023/06/01 04:52:12;;;;;;;6.10;3.67;;;;;;;;;;5078072;28;20151;-55
2023/06/01 04:54:39;;;;;;;7.32;3.28;;;;;;;;;;5080232;28;20154;-55
2023/06/01 04:57:06;;;;;;;6.13;3.47;;;;;;;;;;5090185;28;20621;-54
2023/06/01 04:59:33;;;;;;;13.20;3.58;;;;;;;;;;5070510;28;20106;-52
2023/06/01 05:01:59;;;;;;;7.32;4.85;;;;;;;;;;5081428;28;20464;-53
2023/06/01 05:04:26;;;;;;;10.80;4.30;;;;;;;;;;5083125;28;20049;-52
2023/06/01 05:06:52;;;;;;;9.02;4.07;;;;;;;;;;5079838;28;20196;-55
2023/06/01 05:09:19;;;;;;;7.57;4.45;;;;;;;;;;5080941;28;20057;-55
2023/06/01 05:11:45;;;;;;;7.88;4.15;;;;;;;;;;5066524;28;20078;-53
2023/06/01 05:14:12;;;;;;;7.65;4.10;;;;;;;;;;5083402;28;20079;-56
2023/06/01 05:16:38;;;;;;;7.30;4.25;;;;;;;;;;5074125;28;20092;-57
2023/06/01 05:19:05;;;;;;;4.35;3.42;;;;;;;;;;5083956;28;20088;-55
2023/06/01 05:21:31;;;;;;;9.45;3.92;;;;;;;;;;5083640;28;20211;-52
2023/06/01 05:23:58;;;;;;;10.25;3.65;;;;;;;;;;5078175;28;20064;-55
2023/06/01 05:26:25;;;;;;;5.15;3.72;;;;;;;;;;5078259;28;20139;-53
2023/06/01 05:28:51;;;;;;;6.35;3.40;;;;;;;;;;5080659;28;20059;-53
2023/06/01 05:31:18;;;;;;;7.40;4.25;;;;;;;;;;5068123;28;20202;-54
2023/06/01 05:33:45;;;;;;;4.25;3.25;;;;;;;;;;5070237;28;21719;-56
2023/06/01 05:36:11;;;;;;;8.98;4.28;;;;;;;;;;5082431;28;20053;-55
2023/06/01 05:38:38;;;;;;;6.22;3.75;;;;;;;;;;5081844;28;20506;-55
2023/06/01 05:41:05;;;;;;;10.07;4.63;;;;;;;;;;5078250;28;20297;-56
2023/06/01 05:43:34;;;;;;;8.10;3.75;;;;;;;;;;5083469;28;20060;-53
2023/06/01 05:46:00;;;;;;;7.60;3.53;;;;;;;;;;5076409;28;20214;-55
2023/06/01 05:48:27;;;;;;;9.25;3.45;;;;;;;;;;5076862;28;20167;-54
2023/06/01 05:50:53;;;;;;;6.00;3.45;;;;;;;;;;5067762;28;20141;-56
2023/06/01 05:53:22;;;;;;;5.72;3.17;;;;;;;;;;5076898;28;20073;-54
2023/06/01 05:55:49;;;;;;;7.47;3.72;;;;;;;;;;5074460;28;20048;-53
2023/06/01 05:58:18;;;;;;;7.93;3.90;;;;;;;;;;5069054;28;20060;-52
2023/06/01 06:00:44;;;;;;;8.38;3.75;;;;;;;;;;5069391;28;20789;-57
2023/06/01 06:03:11;;;;;;;8.60;3.90;;;;;;;;;;5064375;28;20131;-53
2023/06/01 06:05:38;;;;;;;7.20;3.88;;;;;;;;;;5066417;28;20052;-54
2023/06/01 06:08:04;;;;;;;9.93;4.22;;;;;;;;;;5066213;28;20048;-53
2023/06/01 06:10:30;;;;;;;4.97;2.70;;;;;;;;;;5082504;28;20490;-52
2023/06/01 06:12:57;;;;;;;5.45;3.05;;;;;;;;;;5082879;28;20053;-55
2023/06/01 06:15:23;;;;;;;9.82;3.47;;;;;;;;;;5080035;28;20052;-56
2023/06/01 06:17:50;;;;;;;8.35;3.22;;;;;;;;;;5082172;28;20773;-54
2023/06/01 06:20:16;;;;;;;5.80;3.22;;;;;;;;;;5082400;28;20127;-56
2023/06/01 06:22:43;;;;;;;4.50;3.40;;;;;;;;;;5075849;28;20052;-54
2023/06/01 06:25:11;;;;;;;7.90;3.83;;;;;;;;;;5075701;28;20060;-56
2023/06/01 06:27:38;;;;;;;8.15;3.72;;;;;;;;;;5082823;28;20110;-54
2023/06/01 06:30:04;;;;;;;7.32;3.78;;;;;;;;;;5080471;28;20056;-52
2023/06/01 06:32:31;;;;;;;7.30;3.83;;;;;;;;;;5081318;28;20053;-56
2023/06/01 06:34:57;;;;;;;7.72;4.55;;;;;;;;;;5085234;28;20532;-56
2023/06/01 06:37:24;;;;;;;6.15;3.97;;;;;;;;;;5081982;28;20052;-53
2023/06/01 06:39:50;;;;;;;7.00;3.95;;;;;;;;;;5082746;28;20052;-56
2023/06/01 06:42:16;;;;;;;7.13;3.95;;;;;;;;;;5079276;28;21966;-52
2023/06/01 06:44:43;;;;;;;5.78;4.00;;;;;;;;;;5078025;28;20088;-54
2023/06/01 06:47:09;;;;;;;6.70;4.70;;;;;;;;;;5066772;28;20502;-52
2023/06/01 06:49:35;;;;;;;8.55;4.57;;;;;;;;;;5079398;28;20048;-56
2023/06/01 06:52:02;;;;;;;14.02;3.78;;;;;;;;;;5080839;28;20147;-53
2023/06/01 06:54:28;;;;;;;6.70;3.78;;;;;;;;;;5082232;28;20056;-54
2023/06/01 06:56:55;;;;;;;11.40;4.55;;;;;;;;;;5079706;28;20053;-55
2023/06/01 06:59:21;;;;;;;11.45;4.15;;;;;;;;;;5078213;28;20115;-55
2023/06/01 07:01:47;;;;;;;8.93;3.63;;;;;;;;;;5069188;28;20475;-53
2023/06/01 07:04:14;;;;;;;7.43;4.20;;;;;;;;;;5068289;28;20520;-53
2023/06/01 07:06:40;;;;;;;5.85;3.78;;;;;;;;;;5072774;28;20048;-54
2023/06/01 07:09:08;;;;;;;8.40;3.58;;;;;;;;;;5078133;28;20151;-54
2023/06/01 07:11:35;;;;;;;8.27;3.67;;;;;;;;;;5076001;28;20055;-55
2023/06/01 07:14:01;;;;;;;6.43;3.10;;;;;;;;;;5083348;28;20139;-56
2023/06/01 07:16:29;;;;;;;6.15;4.22;;;;;;;;;;5084463;28;20615;-56
2023/06/01 07:18:56;;;;;;;4.53;3.45;;;;;;;;;;5083833;28;20561;-57
2023/06/01 07:21:23;;;;;;;9.80;4.18;;;;;;;;;;5085125;28;20147;-55
2023/06/01 07:23:49;;;;;;;6.00;4.05;;;;;;;;;;5086355;28;20060;-56
2023/06/01 07:26:16;;;;;;;6.18;3.85;;;;;;;;;;5082920;28;20053;-54
2023/06/01 07:28:42;;;;;;;6.38;3.70;;;;;;;;;;5081453;28;20056;-52
2023/06/01 07:31:08;;;;;;;8.23;4.03;;;;;;;;;;5083861;28;20060;-53
2023/06/01 07:33:38;;;;;;;5.82;3.00;;;;;;;;;;5069500;28;20564;-55
2023/06/01 07:36:06;;;;;;;8.55;4.72;;;;;;;;;;5076780;28;20128;-54
2023/06/01 07:38:33;;;;;;;6.50;3.45;;;;;;;;;;5086709;28;20048;-54
2023/06/01 07:40:59;;;;;;;8.45;3.58;;;;;;;;;;5081873;28;20110;-54
2023/06/01 07:43:26;;;;;;;6.57;3.63;;;;;;;;;;5084467;28;20114;-54
2023/06/01 07:45:53;;;;;;;7.43;3.03;;;;;;;;;;5083194;28;20140;-54
2023/06/01 07:48:20;;;;;;;7.72;3.20;;;;;;;;;;5083997;28;20053;-54
2023/06/01 07:50:46;;;;;;;5.93;3.00;;;;;;;;;;5084456;28;20056;-54
2023/06/01 07:53:13;;;;;;;9.50;4.15;;;;;;;;;;5072289;28;20077;-54
2023/06/01 07:55:39;;;;;;;6.38;3.28;;;;;;;;;;5079344;28;20055;-55
2023/06/01 07:58:06;;;;;;;5.05;3.10;;;;;;;;;;5078421;28;20519;-56
2023/06/01 08:00:32;;;;;;;4.85;3.25;;;;;;;;;;5083651;28;20098;-54
2023/06/01 08:02:59;;;;;;;5.32;3.08;;;;;;;;;;5084713;28;20052;-56
2023/06/01 08:05:25;;;;;;;5.55;3.05;;;;;;;;;;5077661;28;20049;-57
2023/06/01 08:07:52;;;;;;;5.03;2.53;;;;;;;;;;5083799;28;20056;-57
2023/06/01 08:10:19;;;;;;;4.65;2.67;;;;;;;;;;5083723;28;20048;-56
2023/06/01 08:12:47;;;;;;;4.88;3.20;;;;;;;;;;5071822;28;20110;-56
2023/06/01 08:15:15;;;;;;;5.25;3.13;;;;;;;;;;5084225;27;20545;-53
2023/06/01 08:17:42;;;;;;;6.32;2.90;;;;;;;;;;5083454;28;20053;-54
2023/06/01 08:20:10;;;;;;;4.65;2.70;;;;;;;;;;5084141;28;20219;-52
2023/06/01 08:22:37;;;;;;;11.18;3.30;;;;;;;;;;5077210;28;20069;-56
2023/06/01 08:25:04;;;;;;;4.88;3.38;;;;;;;;;;5084008;28;20048;-55
2023/06/01 08:27:31;;;;;;;5.00;2.70;;;;;;;;;;5081165;28;20052;-51
2023/06/01 08:29:58;;;;;;;3.65;2.92;;;;;;;;;;5081142;28;20611;-55
2023/06/01 08:32:24;;;;;;;7.53;2.97;;;;;;;;;;5083794;28;20057;-56
2023/06/01 08:34:50;;;;;;;4.30;3.30;;;;;;;;;;5084588;28;20114;-52
2023/06/01 08:37:17;;;;;;;3.08;2.50;;;;;;;;;;5083099;28;20730;-54
2023/06/01 08:39:43;;;;;;;4.88;2.72;;;;;;;;;;5067529;28;20115;-55
2023/06/01 08:42:19;;;;;;;6.13;2.80;;;;;;;;;;5082214;28;20092;-52
2023/06/01 08:44:45;;;;;;;;;;;;;;;;;;5074238;28;20053;-54
2023/06/01 08:47:12;;;;;;;5.93;3.10;;;;;;;;;;5085817;28;42739;-57
2023/06/01 08:49:40;;;;;;;8.52;2.72;;;;;;;;;;5082729;28;20056;-51
2023/06/01 08:52:09;;;;;;;7.53;3.45;;;;;;;;;;5082567;28;20181;-53
2023/06/01 08:54:36;;;;;;;5.20;2.50;;;;;;;;;;5082806;28;20571;-54
2023/06/01 08:57:07;;;;;;;6.15;3.05;;;;;;;;;;5089162;28;20601;-53
2023/06/01 08:59:34;;;;;;;4.32;3.30;;;;;;;;;;5083722;28;20053;-54
2023/06/01 09:02:00;;;;;;;10.30;2.97;;;;;;;;;;5079157;28;20061;-54
2023/06/01 09:04:26;;;;;;;4.30;3.00;;;;;;;;;;5084870;28;20601;-54
2023/06/01 09:06:53;;;;;;;4.10;2.63;;;;;;;;;;5082344;28;20495;-55
2023/06/01 09:09:19;;;;;;;3.20;2.50;;;;;;;;;;5083460;28;20087;-54
2023/06/01 09:11:47;;;;;;;5.68;3.00;;;;;;;;;;5083569;28;20091;-56
2023/06/01 09:14:23;;;;;;;4.03;2.63;;;;;;;;;;5086541;28;20313;-56
2023/06/01 09:16:50;;;;;;;4.80;3.03;;;;;;;;;;5082396;28;20060;-56
2023/06/01 09:19:20;;;;;;;3.58;2.15;;;;;;;;;;5083813;28;20052;-57
2023/06/01 09:21:59;;;;;;;4.82;2.92;;;;;;;;;;5078176;28;20053;-54
2023/06/01 09:24:26;;;;;;;6.72;2.85;;;;;;;;;;5080764;28;20533;-55
2023/06/01 09:26:58;;;;;;;9.65;2.70;;;;;;;;;;5082091;28;20503;-54
2023/06/01 09:29:27;;;;;;;3.28;2.55;;;;;;;;;;5074387;28;20057;-56
2023/06/01 09:31:54;;;;;;;5.28;3.25;;;;;;;;;;5073884;28;20049;-57
2023/06/01 09:34:21;;;;;;;5.13;2.20;;;;;;;;;;5082374;28;20143;-53
2023/06/01 09:36:48;;;;;;;6.40;3.22;;;;;;;;;;5081064;28;20210;-56
2023/06/01 09:39:16;;;;;;;4.40;2.70;;;;;;;;;;5076678;28;21964;-54
2023/06/01 09:41:46;;;;;;;5.55;3.30;;;;;;;;;;5081844;28;20062;-54
2023/06/01 09:44:13;;;;;;;3.53;2.63;;;;;;;;;;5073207;28;20064;-53
2023/06/01 09:46:49;;;;;;;4.50;2.85;;;;;;;;;;5074937;28;20572;-57
2023/06/01 09:49:24;;;;;;;3.92;2.33;;;;;;;;;;5073882;28;20126;-57
2023/06/01 09:51:52;;;;;;;4.45;2.60;;;;;;;;;;5081942;28;20869;-55
2023/06/01 09:54:22;;;;;;;4.32;2.65;;;;;;;;;;5083994;28;20060;-56
2023/06/01 09:56:48;;;;;;;5.43;2.78;;;;;;;;;;5080437;28;20403;-53
2023/06/01 09:59:16;;;;;;;4.35;3.08;;;;;;;;;;5081362;28;20091;-57
2023/06/01 10:01:43;;;;;;;3.67;2.20;;;;;;;;;;5080401;28;20579;-55
2023/06/01 10:04:10;;;;;;;3.83;2.33;;;;;;;;;;5078670;28;20095;-57
2023/06/01 10:06:39;;;;;;;5.28;3.15;;;;;;;;;;5083201;28;20057;-57
2023/06/01 10:09:14;;;;;;;6.22;3.30;;;;;;;;;;5082929;28;20052;-58
2023/06/01 10:11:41;;;;;;;5.53;2.92;;;;;;;;;;5081740;28;20521;-55
2023/06/01 10:14:09;;;;;;;4.43;2.80;;;;;;;;;;5067743;28;20056;-55
2023/06/01 10:16:36;;;;;;;3.20;2.50;;;;;;;;;;5082327;28;20102;-57
2023/06/01 10:19:02;;;;;;;6.50;2.88;;;;;;;;;;5073806;28;20049;-57
2023/06/01 10:21:29;;;;;;;3.42;2.63;;;;;;;;;;5079134;28;20049;-55
2023/06/01 10:23:56;;;;;;;4.90;2.67;;;;;;;;;;5080873;28;20088;-57
2023/06/01 10:26:22;;;;;;;3.08;2.35;;;;;;;;;;5081758;28;20106;-57
2023/06/01 10:28:49;;;;;;;4.97;2.72;;;;;;;;;;5084536;28;20058;-56
2023/06/01 10:31:35;;;;;;;3.78;2.55;;;;;;;;;;5077085;28;20541;-58
2023/06/01 10:34:03;;;;;;;3.78;2.78;;;;;;;;;;5079544;28;20049;-59
2023/06/01 10:36:48;;;;;;;5.25;3.08;;;;;;;;;;5081045;28;20114;-59
2023/06/01 10:39:21;;;;;;;4.82;2.55;;;;;;;;;;5067059;28;20111;-58
2023/06/01 10:41:47;;;;;;;4.60;2.50;;;;;;;;;;5082817;28;20656;-60
2023/06/01 10:44:34;;;;;;;3.60;2.55;;;;;;;;;;5079225;28;20056;-58
2023/06/01 10:47:00;;;;;;;5.65;2.55;;;;;;;;;;5080229;28;20048;-58
2023/06/01 10:49:47;;;;;;;5.07;2.28;;;;;;;;;;5084127;28;20113;-57
2023/06/01 10:52:33;;;;;;;4.10;2.03;;;;;;;;;;5087775;28;20048;-59
2023/06/01 10:55:11;;;;;;;2.90;1.90;;;;;;;;;;5078288;28;20581;-56
2023/06/01 10:57:38;;;;;;;4.50;2.40;;;;;;;;;;5083840;28;20052;-59
2023/06/01 11:00:14;;;;;;;3.30;1.90;;;;;;;;;;5084248;28;20085;-59
2023/06/01 11:02:48;;;;;;;4.55;1.85;;;;;;;;;;5084194;28;20130;-60
2023/06/01 11:05:33;;;;;;;5.15;2.08;;;;;;;;;;5083719;28;20110;-59
2023/06/01 11:08:00;;;;;;;3.72;1.75;;;;;;;;;;5083907;28;20122;-59
2023/06/01 11:10:46;;;;;;;4.63;2.22;;;;;;;;;;5085044;28;20056;-59
2023/06/01 11:13:14;;;;;;;5.03;2.40;;;;;;;;;;5084622;28;20512;-59
2023/06/01 11:15:40;;;;;;;3.97;2.20;;;;;;;;;;5084324;28;20306;-59
2023/06/01 11:18:25;;;;;;;1.90;1.70;;;;;;;;;;5084682;28;20076;-58
2023/06/01 11:20:53;;;;;;;2.58;1.65;;;;;;;;;;5085169;28;20136;-56
2023/06/01 11:23:20;;;;;;;3.92;2.10;;;;;;;;;;5086127;28;20060;-58
2023/06/01 11:25:47;;;;;;;2.08;1.70;;;;;;;;;;5077985;28;20084;-59
2023/06/01 11:28:13;;;;;;;2.03;1.77;;;;;;;;;;5077950;28;20661;-57
2023/06/01 11:30:40;;;;;;;4.03;1.85;;;;;;;;;;5078984;28;20712;-58
2023/06/01 11:33:07;;;;;;;3.85;1.83;;;;;;;;;;5077244;28;20604;-59
2023/06/01 11:35:33;;;;;;;2.85;1.73;;;;;;;;;;5076428;28;20057;-59
2023/06/01 11:37:59;;;;;;;3.75;1.63;;;;;;;;;;5084021;28;20048;-59
2023/06/01 11:40:26;;;;;;;2.20;1.77;;;;;;;;;;5084477;28;20049;-58
2023/06/01 11:42:58;;;;;;;2.15;1.65;;;;;;;;;;5083279;28;20060;-59
2023/06/01 11:45:27;;;;;;;6.00;2.38;;;;;;;;;;5077643;28;20129;-58
2023/06/01 11:47:53;;;;;;;2.65;1.98;;;;;;;;;;5082569;28;20333;-58
2023/06/01 11:50:26;;;;;;;3.70;2.00;;;;;;;;;;5082080;28;20060;-57
2023/06/01 11:52:53;;;;;;;2.25;1.70;;;;;;;;;;5068457;28;20139;-58
2023/06/01 11:55:20;;;;;;;2.08;1.52;;;;;;;;;;5082260;28;20064;-59
2023/06/01 11:57:46;;;;;;;1.67;1.40;;;;;;;;;;5087101;28;20129;-59
2023/06/01 12:00:13;;;;;;;2.22;1.50;;;;;;;;;;5078122;28;20045;-59
2023/06/01 12:02:41;;;;;;;2.47;1.67;;;;;;;;;;5073172;28;20052;-57
2023/06/01 12:05:08;;;;;;;7.70;1.95;;;;;;;;;;5066280;28;20599;-57
2023/06/01 12:07:50;;;;;;;3.30;1.60;;;;;;;;;;5082769;28;21102;-56
2023/06/01 12:10:18;;;;;;;6.15;1.60;;;;;;;;;;5082816;28;20053;-58
2023/06/01 12:12:45;;;;;;;2.42;1.85;;;;;;;;;;5083275;28;20143;-58
2023/06/01 12:15:13;;;;;;;2.67;1.48;;;;;;;;;;5084208;28;20049;-56
2023/06/01 12:17:50;;;;;;;2.13;1.67;;;;;;;;;;5083272;28;20060;-58
2023/06/01 12:20:33;;;;;;;2.60;1.92;;;;;;;;;;5084634;28;20060;-56
2023/06/01 12:23:03;;;;;;;3.97;2.00;;;;;;;;;;5084107;28;20501;-57
2023/06/01 12:25:32;;;;;;;5.80;1.95;;;;;;;;;;5083963;28;20536;-57
2023/06/01 12:28:00;;;;;;;5.72;1.88;;;;;;;;;;5087819;28;20139;-58
2023/06/01 12:30:26;;;;;;;2.65;1.60;;;;;;;;;;5101902;28;20131;-58
2023/06/01 12:32:52;;;;;;;2.72;1.75;;;;;;;;;;5079543;28;20172;-58
2023/06/01 12:35:23;;;;;;;4.63;1.80;;;;;;;;;;5078496;28;20513;-57
2023/06/01 12:38:22;;;;;;;4.15;2.15;;;;;;;;;;5084730;28;20737;-55
2023/06/01 12:41:05;;;;;;;2.28;1.75;;;;;;;;;;5048161;28;20062;-58
2023/06/01 12:43:31;;;;;;;2.60;1.80;;;;;;;;;;5081605;28;20137;-57
2023/06/01 12:45:58;;;;;;;3.17;1.95;;;;;;;;;;5080223;28;20091;-56
2023/06/01 12:48:37;;;;;;;4.10;1.90;;;;;;;;;;5082690;28;20533;-57
2023/06/01 12:51:03;;;;;;;2.03;1.55;;;;;;;;;;5082480;28;20048;-55
2023/06/01 12:53:31;;;;;;;4.22;1.90;;;;;;;;;;5087468;28;20135;-58
2023/06/01 12:55:57;;;;;;;1.85;1.38;;;;;;;;;;5100889;28;20401;-58
2023/06/01 12:58:24;;;;;;;1.92;1.73;;;;;;;;;;5083994;28;20056;-58
2023/06/01 13:00:50;;;;;;;1.40;1.30;;;;;;;;;;5083065;28;20053;-59
2023/06/01 13:03:23;;;;;;;3.60;1.73;;;;;;;;;;5077809;28;20063;-58
2023/06/01 13:05:51;;;;;;;3.13;1.67;;;;;;;;;;5083527;28;20469;-58
2023/06/01 13:08:17;;;;;;;2.83;1.25;;;;;;;;;;5087892;28;20060;-57
2023/06/01 13:10:44;;;;;;;2.67;1.45;;;;;;;;;;5083512;28;20118;-58
2023/06/01 13:13:12;;;;;;;4.47;1.60;;;;;;;;;;5082843;28;20614;-59
2023/06/01 13:15:39;;;;;;;2.35;1.35;;;;;;;;;;5082527;28;20422;-58
2023/06/01 13:18:06;;;;;;;4.65;1.75;;;;;;;;;;5078691;28;20052;-58
2023/06/01 13:20:32;;;;;;;1.50;1.40;;;;;;;;;;5083394;28;20143;-58
2023/06/01 13:22:59;;;;;;;1.95;1.60;;;;;;;;;;5082355;28;20580;-57
2023/06/01 13:25:25;;;;;;;3.00;1.60;;;;;;;;;;5083168;28;20110;-57
2023/06/01 13:27:52;;;;;;;1.02;0.88;;;;;;;;;;5082991;28;20102;-57
2023/06/01 13:30:18;;;;;;;1.92;1.70;;;;;;;;;;5082219;28;20640;-55
2023/06/01 13:32:45;;;;;;;3.50;1.20;;;;;;;;;;5082768;28;20057;-59
2023/06/01 13:35:11;;;;;;;1.33;1.23;;;;;;;;;;5074777;28;20138;-58
2023/06/01 13:37:38;;;;;;;1.73;1.40;;;;;;;;;;5082549;28;20217;-58
2023/06/01 13:40:05;;;;;;;1.13;1.10;;;;;;;;;;5083273;28;20052;-56
2023/06/01 13:42:35;;;;;;;1.42;1.08;;;;;;;;;;5082446;28;20045;-58
2023/06/01 13:45:01;;;;;;;2.20;1.70;;;;;;;;;;5071301;28;20056;-55
2023/06/01 13:47:28;;;;;;;1.23;1.08;;;;;;;;;;5077820;28;20106;-60
2023/06/01 13:49:54;;;;;;;1.40;1.15;;;;;;;;;;5082560;28;20506;-57
2023/06/01 13:52:21;;;;;;;4.28;1.20;;;;;;;;;;5083912;28;20084;-57
2023/06/01 13:54:47;;;;;;;1.17;1.08;;;;;;;;;;5082818;28;20053;-58
2023/06/01 13:57:13;;;;;;;1.45;1.17;;;;;;;;;;5080673;28;20053;-57
2023/06/01 13:59:40;;;;;;;1.88;1.50;;;;;;;;;;5067676;28;20522;-56
2023/06/01 14:02:08;;;;;;;2.35;1.05;;;;;;;;;;5080757;28;20559;-57
2023/06/01 14:04:35;;;;;;;1.05;1.00;;;;;;;;;;5080951;28;20460;-57
2023/06/01 14:07:01;;;;;;;1.20;1.10;;;;;;;;;;5078996;28;20056;-58
2023/06/01 14:09:28;;;;;;;0.98;0.90;;;;;;;;;;5083202;28;20056;-57
2023/06/01 14:11:54;;;;;;;1.00;0.90;;;;;;;;;;5098068;28;20544;-59
2023/06/01 14:14:21;;;;;;;0.90;0.90;;;;;;;;;;5081742;28;20532;-58
2023/06/01 14:16:47;;;;;;;1.60;0.98;;;;;;;;;;5084712;28;20048;-59
2023/06/01 14:19:14;;;;;;;1.38;0.75;;;;;;;;;;5070627;28;20689;-58
2023/06/01 14:21:40;;;;;;;0.80;0.80;;;;;;;;;;5078604;28;20052;-58
2023/06/01 14:24:07;;;;;;;1.65;1.15;;;;;;;;;;5087397;28;20057;-57
2023/06/01 14:26:33;;;;;;;1.33;1.23;;;;;;;;;;5080820;28;20060;-59
2023/06/01 14:28:59;;;;;;;1.13;0.95;;;;;;;;;;5084081;28;20141;-57
2023/06/01 14:31:26;;;;;;;2.28;1.67;;;;;;;;;;5075893;28;20063;-57
2023/06/01 14:33:52;;;;;;;2.13;1.25;;;;;;;;;;5085757;28;20642;-55
2023/06/01 14:36:20;;;;;;;2.05;1.10;;;;;;;;;;5085498;28;20091;-57
2023/06/01 14:38:49;;;;;;;1.00;0.90;;;;;;;;;;5085705;28;20456;-55
2023/06/01 14:41:16;;;;;;;1.08;1.05;;;;;;;;;;5085152;28;20129;-58
2023/06/01 14:43:42;;;;;;;2.25;1.30;;;;;;;;;;5082020;28;20122;-56
2023/06/01 14:46:08;;;;;;;3.42;1.27;;;;;;;;;;5084189;28;20056;-58
2023/06/01 14:48:35;;;;;;;1.15;1.00;;;;;;;;;;5084031;28;20527;-55